Time;durP1;ratioP1;P1;durP2;ratioP2;P2;SDS_P1;SDS_P2;PMS_P1;PMS_P2;Temp;Humidity;BMP_temperature;BMP_pressure;BME280_temperature;BME280_humidity;BME280_pressure;Samples;Min_cycle;Max_cycle;Signal;HPM_P1;HPM_P2
2023/01/12 00:03:25;;;;;;;1.35;1.33;;;;;;;3.18;66.34;100959.63;18690658;31;20363;-57
2023/01/12 00:13:30;;;;;;;1.87;1.77;;;;;;;3.07;66.68;100954.88;18688105;31;20087;-57
2023/01/12 00:23:33;;;;;;;1.77;1.65;;;;;;;3.05;67.15;100966.00;18688361;31;20436;-57
2023/01/12 00:33:38;;;;;;;1.00;1.00;;;;;;;3.17;66.93;100951.81;18688054;31;20107;-57
2023/01/12 00:54:06;;;;;;;1.98;1.87;;;;;;;3.37;66.30;100964.56;18696053;31;20110;-57
2023/01/12 01:04:10;;;;;;;1.00;1.00;;;;;;;3.43;66.97;100959.63;18696064;31;20144;-57
2023/01/12 01:14:14;;;;;;;1.55;1.45;;;;;;;3.61;67.27;100965.44;18695766;31;20104;-57
2023/01/12 01:24:17;;;;;;;1.85;1.75;;;;;;;3.87;66.48;100974.94;18695787;31;20091;-57
2023/01/12 01:34:22;;;;;;;8.68;4.50;;;;;;;3.93;66.78;100987.16;18696267;31;20434;-57
2023/01/12 01:44:51;;;;;;;2.35;1.75;;;;;;;3.95;67.49;101001.03;18695181;31;20096;-58
2023/01/12 01:54:58;;;;;;;1.92;1.83;;;;;;;4.28;67.04;100996.16;18694653;31;20376;-57
2023/01/12 02:05:01;;;;;;;5.47;4.43;;;;;;;4.36;67.26;100993.81;18692845;31;20113;-57
2023/01/12 02:25:58;;;;;;;1.00;1.00;;;;;;;4.67;67.04;101012.87;18694040;31;20102;-57
2023/01/12 02:36:06;;;;;;;6.65;6.25;;;;;;;4.57;67.53;101003.97;18682854;31;20364;-57
2023/01/12 02:46:14;;;;;;;0.62;0.62;;;;;;;4.82;67.23;101009.91;18693340;31;20087;-57
2023/01/12 02:56:21;;;;;;;9.90;3.05;;;;;;;4.83;67.30;101001.31;18694310;31;20119;-57
2023/01/12 03:06:24;;;;;;;1.75;1.65;;;;;;;4.89;67.43;100997.16;18692477;31;20088;-57
2023/01/12 03:16:34;;;;;;;1.45;1.45;;;;;;;4.94;67.36;100993.03;18690538;31;20087;-57
2023/01/12 03:26:40;;;;;;;3.65;3.40;;;;;;;5.03;67.40;100977.78;18692997;31;20459;-57
2023/01/12 03:36:53;;;;;;;0.73;0.73;;;;;;;4.99;68.05;100973.31;18691577;31;20099;-57
2023/01/12 03:47:01;;;;;;;3.30;3.00;;;;;;;5.28;67.16;100971.59;18691001;31;20767;-58
2023/01/12 03:57:07;;;;;;;3.00;2.80;;;;;;;5.16;66.80;100972.94;18689982;31;20449;-58
2023/01/12 04:07:10;;;;;;;0.80;0.80;;;;;;;5.19;67.88;100960.09;18687442;31;20106;-57
2023/01/12 04:17:15;;;;;;;1.23;1.23;;;;;;;5.20;68.24;100974.78;18687802;31;20160;-58
2023/01/12 04:27:18;;;;;;;2.55;2.45;;;;;;;5.46;67.72;100985.00;18694067;31;20080;-58
2023/01/12 04:37:23;;;;;;;0.77;0.77;;;;;;;5.43;68.08;100969.41;18696945;31;20435;-58
2023/01/12 04:47:26;;;;;;;1.90;1.80;;;;;;;5.52;67.48;100977.44;18695984;31;20536;-57
2023/01/12 04:57:31;;;;;;;0.93;0.93;;;;;;;5.48;67.63;100972.97;18695882;31;20092;-57
2023/01/12 05:10:21;;;;;;;3.70;1.95;;;;;;;5.55;67.66;100970.62;18696173;31;20109;-58
2023/01/12 05:18:01;;;;;;;2.28;2.15;;;;;;;5.66;67.54;100994.22;18658077;31;20108;-58
2023/01/12 05:28:05;;;;;;;1.02;1.02;;;;;;;5.69;67.23;101002.09;18629444;31;20137;-58
2023/01/12 05:38:09;;;;;;;1.62;1.58;;;;;;;5.66;67.16;100983.84;18628660;31;20092;-58
2023/01/12 05:48:13;;;;;;;0.65;0.65;;;;;;;5.34;68.71;101004.56;18630079;31;20429;-58
2023/01/12 05:58:17;;;;;;;0.98;0.98;;;;;;;5.68;67.71;101004.62;18637179;31;20091;-58
2023/01/12 06:08:20;;;;;;;0.93;0.93;;;;;;;5.53;68.02;101007.66;18694158;31;20095;-58
2023/01/12 06:18:25;;;;;;;2.33;1.98;;;;;;;5.74;67.48;101001.31;18693575;31;20151;-57
2023/01/12 06:28:28;;;;;;;3.22;2.50;;;;;;;5.73;67.85;101008.22;18693730;31;20084;-58
2023/01/12 06:38:35;;;;;;;0.82;0.82;;;;;;;5.89;67.29;101019.87;18691526;31;20115;-58
2023/01/12 06:48:38;;;;;;;3.60;3.25;;;;;;;5.87;67.60;101028.44;18692414;31;20087;-57
2023/01/12 06:58:44;;;;;;;0.62;0.62;;;;;;;5.88;67.59;101028.50;18690897;31;20360;-57
2023/01/12 07:08:47;;;;;;;0.70;0.70;;;;;;;5.87;67.98;101057.81;18656650;31;20096;-58
2023/01/12 07:18:51;;;;;;;0.80;0.80;;;;;;;6.03;67.38;101063.47;18587050;31;20416;-59
2023/01/12 07:28:55;;;;;;;2.00;1.90;;;;;;;6.10;67.39;101076.63;18593407;31;20091;-59
2023/01/12 07:39:00;;;;;;;1.65;1.55;;;;;;;6.20;67.52;101067.37;18625663;31;20088;-59
2023/01/12 07:49:04;;;;;;;0.90;0.85;;;;;;;6.33;67.41;101075.47;18623058;31;20104;-59
2023/01/12 07:59:09;;;;;;;1.52;1.42;;;;;;;6.51;67.50;101081.16;18553007;31;20112;-60
2023/01/12 08:09:12;;;;;;;4.72;3.28;;;;;;;6.57;67.87;101082.16;18392315;32;20096;-57
2023/01/12 08:19:19;;;;;;;3.40;3.20;;;;;;;6.75;67.68;101077.41;18386174;32;20161;-57
2023/01/12 08:29:28;;;;;;;3.87;2.05;;;;;;;6.98;67.65;101090.06;18406828;32;20252;-57
2023/01/12 08:39:34;;;;;;;1.48;1.40;;;;;;;7.34;67.14;101089.16;18437496;32;20099;-58
2023/01/12 08:49:37;;;;;;;1.20;0.82;;;;;;;7.60;66.27;101096.66;18437005;32;20402;-57
2023/01/12 08:59:42;;;;;;;3.22;1.48;;;;;;;7.67;66.38;101074.25;18436060;31;20108;-57
2023/01/12 09:09:45;;;;;;;1.25;1.23;;;;;;;7.94;66.67;101083.47;18430739;32;20141;-58
2023/01/12 09:19:50;;;;;;;2.97;2.05;;;;;;;8.37;66.00;101072.09;18406465;32;20157;-59
2023/01/12 09:29:54;;;;;;;0.95;0.90;;;;;;;8.69;65.72;101069.22;18359409;32;20093;-58
2023/01/12 09:39:59;;;;;;;0.90;0.90;;;;;;;9.00;64.16;101065.34;18414667;32;20392;-57
2023/01/12 09:50:05;;;;;;;1.05;1.05;;;;;;;8.32;66.87;101085.91;18357148;32;20170;-58
2023/01/12 10:00:16;;;;;;;1.48;1.37;;;;;;;8.41;67.26;101077.37;18368970;31;20145;-57
2023/01/12 10:10:19;;;;;;;1.17;1.17;;;;;;;8.23;68.74;101066.66;18358164;32;20093;-58
2023/01/12 10:20:27;;;;;;;2.12;1.75;;;;;;;7.73;70.47;101056.19;18393384;32;20149;-58
2023/01/12 10:30:33;;;;;;;0.68;0.68;;;;;;;8.84;67.39;101053.81;18417515;32;20101;-58
2023/01/12 10:40:37;;;;;;;1.92;1.83;;;;;;;8.77;68.14;101043.28;18405510;32;20088;-58
2023/01/12 10:50:41;;;;;;;1.37;1.27;;;;;;;8.87;67.89;101040.87;18402971;32;20092;-58
2023/01/12 11:00:48;;;;;;;2.72;2.53;;;;;;;9.40;67.23;101051.16;18381135;31;20447;-57
2023/01/12 11:10:52;;;;;;;0.50;0.50;;;;;;;9.17;67.77;101041.28;18382266;32;20754;-57
2023/01/12 11:21:01;;;;;;;0.73;0.73;;;;;;;9.85;65.24;101028.22;18389697;31;20475;-58
2023/01/12 11:31:07;;;;;;;0.93;0.88;;;;;;;9.80;65.22;101015.12;18396058;32;20149;-58
2023/01/12 11:41:20;;;;;;;1.08;1.08;;;;;;;9.86;66.37;101009.09;18364913;32;20116;-58
2023/01/12 11:51:24;;;;;;;1.98;1.87;;;;;;;9.56;67.20;100997.47;18352064;32;20093;-58
2023/01/12 12:01:35;;;;;;;3.85;2.75;;;;;;;10.05;65.75;100988.41;18351444;32;20162;-58
2023/01/12 12:11:45;;;;;;;1.08;1.05;;;;;;;9.91;64.87;100988.28;18352864;32;20339;-59
2023/01/12 12:21:51;;;;;;;1.30;1.27;;;;;;;10.72;62.91;100982.00;18359380;32;20108;-60
2023/01/12 12:32:16;;;;;;;0.75;0.75;;;;;;;9.92;64.05;100977.88;18364586;32;20430;-59
2023/01/12 12:53:07;;;;;;;1.73;1.60;;;;;;;10.57;61.06;100969.72;18427163;32;20092;-59
2023/01/12 13:03:45;;;;;;;0.80;0.68;;;;;;;11.15;59.45;100955.25;18425792;32;20449;-59
2023/01/12 13:14:00;;;;;;;0.70;0.70;;;;;;;10.61;59.94;100961.03;18425080;32;20113;-59
2023/01/12 13:24:29;;;;;;;0.60;0.60;;;;;;;11.12;59.32;100954.34;18424546;32;20097;-60
2023/01/12 13:34:45;;;;;;;0.60;0.60;;;;;;;10.53;60.61;100950.56;18424594;32;20180;-59
2023/01/12 13:44:48;;;;;;;1.00;1.00;;;;;;;10.80;60.61;100958.56;18424087;32;20112;-59
2023/01/12 13:54:53;;;;;;;0.90;0.90;;;;;;;9.42;65.14;100977.31;18423026;32;20113;-58
2023/01/12 14:05:22;;;;;;;0.50;0.50;;;;;;;9.67;64.95;100971.50;18423193;32;20145;-58
2023/01/12 14:26:13;;;;;;;0.60;0.60;;;;;;;10.24;62.05;100956.41;18422486;32;20081;-58
2023/01/12 14:36:22;;;;;;;0.70;0.70;;;;;;;11.02;59.65;100959.53;18422263;32;20098;-58
2023/01/12 14:46:28;;;;;;;0.73;0.73;;;;;;;10.82;60.23;100956.84;18421802;32;20181;-58
2023/01/12 14:56:37;;;;;;;0.95;0.75;;;;;;;10.65;60.44;100952.37;18420543;32;20342;-58
2023/01/12 15:06:42;;;;;;;5.47;1.55;;;;;;;10.45;60.40;100940.94;18407078;32;20441;-58
2023/01/12 15:27:08;;;;;;;2.60;1.98;;;;;;;9.63;60.86;100938.47;18373788;32;20109;-58
2023/01/12 15:37:15;;;;;;;1.58;1.48;;;;;;;9.07;61.35;100945.63;18371927;32;20142;-58
2023/01/12 15:47:19;;;;;;;1.23;1.23;;;;;;;8.59;61.78;100951.06;18408025;31;20089;-58
2023/01/12 15:57:24;;;;;;;2.22;2.10;;;;;;;8.09;62.43;100942.47;18350144;32;20093;-57
2023/01/12 16:07:29;;;;;;;4.32;3.92;;;;;;;7.68;62.64;100964.25;18394060;32;20097;-57
2023/01/12 16:17:34;;;;;;;1.35;1.35;;;;;;;7.24;62.92;100961.66;18376237;32;20178;-58
2023/01/12 16:27:38;;;;;;;0.70;0.70;;;;;;;6.93;63.46;100977.47;18387653;32;20094;-57
2023/01/12 16:37:44;;;;;;;3.50;2.47;;;;;;;6.63;64.16;100976.81;18388193;32;20110;-57
2023/01/12 16:47:47;;;;;;;6.80;3.37;;;;;;;6.46;63.50;100978.12;18400998;32;20117;-57
2023/01/12 16:57:52;;;;;;;1.55;1.45;;;;;;;6.28;63.55;100986.34;18370782;32;20105;-58
2023/01/12 17:07:55;;;;;;;2.00;1.90;;;;;;;5.89;63.88;101000.84;18395173;32;20109;-57
2023/01/12 17:17:59;;;;;;;2.05;1.95;;;;;;;5.62;64.53;101005.34;18382620;32;20115;-57
2023/01/12 17:28:03;;;;;;;1.80;1.60;;;;;;;5.33;64.44;100997.62;18380387;32;20429;-57
2023/01/12 17:38:08;;;;;;;0.80;0.80;;;;;;;5.01;65.22;100997.53;18354553;32;20180;-57
2023/01/12 17:48:12;;;;;;;2.28;2.17;;;;;;;4.97;64.59;101003.47;18365639;32;20088;-57
2023/01/12 17:58:17;;;;;;;1.40;1.15;;;;;;;4.86;64.94;101011.78;18391415;31;20093;-57
2023/01/12 18:08:20;;;;;;;1.45;1.25;;;;;;;4.79;65.24;101008.91;18415989;32;20101;-57
2023/01/12 18:18:25;;;;;;;9.23;3.83;;;;;;;4.67;65.40;101009.44;18393857;32;20485;-57
2023/01/12 18:28:28;;;;;;;9.25;4.28;;;;;;;4.57;65.24;101006.56;18410327;32;20112;-57
2023/01/12 18:38:33;;;;;;;3.75;3.45;;;;;;;4.42;65.22;101008.62;18395027;32;20183;-57
2023/01/12 18:48:37;;;;;;;1.50;1.40;;;;;;;4.24;65.33;101002.03;18355675;32;20473;-58
2023/01/12 18:58:44;;;;;;;1.10;1.10;;;;;;;4.23;65.07;101002.00;18378408;31;20197;-57
2023/01/12 19:19:09;;;;;;;1.53;1.43;;;;;;;4.27;66.52;101001.25;18373865;32;20091;-57
2023/01/12 19:29:12;;;;;;;4.22;3.75;;;;;;;4.32;66.71;100996.22;18362936;32;20186;-57
2023/01/12 19:39:24;;;;;;;18.50;7.25;;;;;;;4.24;67.34;100991.69;18372493;32;20097;-57
2023/01/12 19:49:27;;;;;;;6.82;6.32;;;;;;;4.23;67.65;100968.38;18379687;31;20102;-57
2023/01/12 19:59:32;;;;;;;3.85;3.60;;;;;;;4.48;67.26;100954.53;18341957;31;162656;-57
2023/01/12 20:09:36;;;;;;;6.07;4.93;;;;;;;4.32;68.47;100955.78;18381288;32;20119;-57
2023/01/12 20:19:40;;;;;;;1.42;1.37;;;;;;;4.52;67.36;100961.56;18353045;32;20093;-57
2023/01/12 20:29:44;;;;;;;4.35;2.55;;;;;;;4.10;67.96;100964.50;18381716;32;20085;-57
2023/01/12 20:39:52;;;;;;;4.53;4.12;;;;;;;4.24;66.66;100980.47;18417002;32;20104;-58
2023/01/12 20:49:55;;;;;;;1.12;1.08;;;;;;;4.07;67.13;100985.97;18412088;32;20119;-58
2023/01/12 21:00:00;;;;;;;1.08;1.08;;;;;;;4.04;67.66;100988.44;18471183;31;20111;-59
2023/01/12 21:10:07;;;;;;;1.12;1.12;;;;;;;4.26;67.37;100995.19;18632038;31;20092;-57
2023/01/12 21:20:13;;;;;;;2.03;1.92;;;;;;;4.10;67.74;100986.06;18672318;31;20357;-57
2023/01/12 21:30:17;;;;;;;1.62;1.52;;;;;;;4.19;67.30;100994.94;18648754;31;20107;-57
2023/01/12 21:40:21;;;;;;;1.98;1.87;;;;;;;4.02;68.27;100980.63;18684415;31;20150;-57
2023/01/12 21:50:25;;;;;;;0.80;0.80;;;;;;;4.29;68.46;100977.22;18694933;31;20114;-57
2023/01/12 22:00:29;;;;;;;1.70;1.60;;;;;;;4.35;68.95;100985.97;18600543;31;20089;-57
2023/01/12 22:10:33;;;;;;;0.77;0.77;;;;;;;4.41;69.03;100979.34;18359459;32;20101;-57
2023/01/12 22:20:41;;;;;;;0.75;0.75;;;;;;;4.63;68.87;100966.19;18359577;32;20132;-57
2023/01/12 22:30:44;;;;;;;1.98;1.87;;;;;;;4.74;68.63;100953.59;18416879;32;20128;-57
2023/01/12 22:40:48;;;;;;;2.22;1.98;;;;;;;4.53;69.61;100952.09;18422114;32;20138;-57
2023/01/12 22:50:53;;;;;;;4.57;4.28;;;;;;;4.71;68.99;100947.50;18421681;32;20108;-57
2023/01/12 23:01:03;;;;;;;1.85;1.75;;;;;;;4.84;68.45;100940.09;18421449;31;20094;-57
2023/01/12 23:11:08;;;;;;;3.15;2.87;;;;;;;4.90;68.13;100932.53;18421205;32;20093;-57
2023/01/12 23:21:14;;;;;;;5.53;5.07;;;;;;;4.83;67.79;100938.34;18421620;32;20104;-58
2023/01/12 23:31:20;;;;;;;1.62;1.52;;;;;;;4.65;68.29;100933.50;18419999;32;20106;-57
2023/01/12 23:41:26;;;;;;;2.10;2.00;;;;;;;4.80;67.97;100940.84;18419866;32;20115;-57
2023/01/12 23:51:30;;;;;;;9.48;4.55;;;;;;;4.82;67.31;100946.94;18419398;32;20452;-57
